createdAt,value
2022-10-05T00:02:15.721Z,100890.91
2022-10-05T00:07:20.470Z,100879.81
2022-10-05T00:12:24.274Z,100889.94
2022-10-05T00:17:30.467Z,100890.03
2022-10-05T00:22:34.784Z,100882.97
2022-10-05T00:27:38.941Z,100884.50
2022-10-05T00:32:43.130Z,100884.09
2022-10-05T00:37:47.008Z,100872.38
2022-10-05T00:43:01.790Z,100867.38
2022-10-05T00:48:14.757Z,100859.81
2022-10-05T00:53:32.295Z,100867.25
2022-10-05T00:58:49.378Z,100868.16
2022-10-05T01:04:03.860Z,100864.78
2022-10-05T01:09:13.761Z,100882.91
2022-10-05T01:14:23.005Z,100902.09
2022-10-05T01:19:43.924Z,100891.03
2022-10-05T01:25:01.358Z,100903.88
2022-10-05T01:30:09.813Z,100892.00
2022-10-05T01:35:26.144Z,100877.56
2022-10-05T01:40:37.529Z,100881.84
2022-10-05T01:45:53.255Z,100880.41
2022-10-05T01:51:07.099Z,100881.13
2022-10-05T01:56:20.370Z,100881.88
2022-10-05T02:01:32.363Z,100870.78
2022-10-05T02:06:40.032Z,100870.63
2022-10-05T02:11:48.233Z,100869.19
2022-10-05T02:16:55.610Z,100865.56
2022-10-05T02:22:04.713Z,100861.38
2022-10-05T02:27:09.632Z,100865.53
2022-10-05T02:32:16.994Z,100875.28
2022-10-05T02:37:30.253Z,100879.13
2022-10-05T02:42:41.427Z,100877.59
2022-10-05T02:47:54.029Z,100864.72
2022-10-05T02:53:11.245Z,100860.44
2022-10-05T02:58:17.023Z,100842.19
2022-10-05T03:03:29.997Z,100841.94
2022-10-05T03:08:37.992Z,100828.84
2022-10-05T03:13:52.611Z,100823.84
2022-10-05T03:19:10.226Z,100835.50
2022-10-05T03:24:34.601Z,100832.50
2022-10-05T03:29:46.576Z,100832.78
2022-10-05T03:34:58.371Z,100833.13
2022-10-05T03:40:07.210Z,100831.09
2022-10-05T03:45:22.662Z,100836.50
2022-10-05T03:50:40.613Z,100832.28
2022-10-05T03:55:48.221Z,100827.97
2022-10-05T04:00:54.903Z,100841.03
2022-10-05T04:06:03.444Z,100834.13
2022-10-05T04:11:13.337Z,100817.00
2022-10-05T04:16:19.758Z,100814.91
2022-10-05T04:21:29.382Z,100809.13
2022-10-05T04:26:37.066Z,100802.56
2022-10-05T04:31:59.734Z,100794.34
2022-10-05T04:37:07.904Z,100799.06
2022-10-05T04:42:16.818Z,100809.81
2022-10-05T04:47:37.084Z,100805.13
2022-10-05T04:52:50.110Z,100809.81
2022-10-05T04:58:02.388Z,100804.31
2022-10-05T05:03:23.704Z,100816.09
2022-10-05T05:08:46.889Z,100824.59
2022-10-05T05:14:16.968Z,100838.47
2022-10-05T05:19:33.306Z,100832.38
2022-10-05T05:24:49.274Z,100841.44
2022-10-05T05:30:01.715Z,100842.00
2022-10-05T05:35:25.176Z,100824.81
2022-10-05T05:40:34.284Z,100830.22
2022-10-05T05:45:41.558Z,100837.03
2022-10-05T05:50:56.313Z,100820.84
2022-10-05T05:56:05.167Z,100801.16
2022-10-05T06:01:31.714Z,100802.63
2022-10-05T06:06:40.871Z,100794.06
2022-10-05T06:11:49.610Z,100790.22
2022-10-05T06:16:56.243Z,100788.97
2022-10-05T06:22:05.885Z,100802.72
2022-10-05T06:27:27.826Z,100800.19
2022-10-05T06:32:34.902Z,100788.41
2022-10-05T06:37:57.769Z,100784.97
2022-10-05T06:43:17.233Z,100788.59
2022-10-05T06:48:30.360Z,100794.06
2022-10-05T06:53:40.792Z,100793.53
2022-10-05T06:58:52.167Z,100798.44
2022-10-05T07:04:09.459Z,100799.94
2022-10-05T07:09:27.742Z,100800.69
2022-10-05T07:14:52.882Z,100812.91
2022-10-05T07:20:04.265Z,100809.94
2022-10-05T07:25:13.321Z,100800.91
2022-10-05T07:30:18.095Z,100804.81
2022-10-05T07:35:46.576Z,100791.34
2022-10-05T07:40:54.062Z,100789.75
2022-10-05T07:46:04.445Z,100785.78
2022-10-05T07:51:13.281Z,100784.53
2022-10-05T07:56:24.542Z,100768.19
2022-10-05T08:01:32.147Z,100764.50
2022-10-05T08:06:45.532Z,100762.19
2022-10-05T08:11:56.970Z,100763.34
2022-10-05T08:17:07.140Z,100763.63
2022-10-05T08:22:13.973Z,100759.66
2022-10-05T08:27:24.566Z,100756.38
2022-10-05T08:32:34.018Z,100757.09
2022-10-05T08:37:41.546Z,100768.00
2022-10-05T08:43:06.858Z,100768.66
2022-10-05T08:48:42.796Z,100759.44
2022-10-05T08:54:19.372Z,100751.47
2022-10-05T08:59:41.086Z,100759.09
2022-10-05T09:04:59.082Z,100765.16
2022-10-05T09:10:42.387Z,100758.34
2022-10-05T09:16:39.127Z,100759.09
2022-10-05T09:21:43.378Z,100744.97
2022-10-05T09:26:58.340Z,100738.50
2022-10-05T09:32:16.244Z,100747.66
2022-10-05T09:37:48.078Z,100740.09
2022-10-05T09:43:17.531Z,100733.59
2022-10-05T09:48:56.891Z,100732.00
2022-10-05T09:54:36.945Z,100736.06
2022-10-05T10:00:12.227Z,100738.31
2022-10-05T10:05:54.059Z,100732.78
2022-10-05T10:11:12.705Z,100733.25
2022-10-05T10:16:28.224Z,100729.31
2022-10-05T10:22:11.246Z,100721.56
2022-10-05T10:27:27.623Z,100716.38
2022-10-05T10:33:04.258Z,100717.16
2022-10-05T10:38:40.363Z,100718.28
2022-10-05T10:44:05.222Z,100723.91
2022-10-05T10:49:20.812Z,100725.44
2022-10-05T10:54:52.712Z,100719.84
2022-10-05T11:00:37.510Z,100713.91
2022-10-05T11:06:04.212Z,100710.78
2022-10-05T11:11:20.689Z,100720.41
2022-10-05T11:16:47.846Z,100704.88
2022-10-05T11:22:13.662Z,100699.88
2022-10-05T11:27:34.126Z,100696.41
2022-10-05T11:33:18.607Z,100709.00
2022-10-05T11:38:41.088Z,100702.34
2022-10-05T11:44:13.482Z,100696.69
2022-10-05T11:49:31.492Z,100689.16
2022-10-05T11:55:11.352Z,100680.91
2022-10-05T12:00:19.405Z,100671.50
2022-10-05T12:05:27.163Z,100664.69
2022-10-05T12:10:37.776Z,100668.09
2022-10-05T12:15:49.095Z,100671.84
2022-10-05T12:20:57.428Z,100670.13
2022-10-05T12:26:05.878Z,100668.53
2022-10-05T12:31:20.435Z,100664.41
2022-10-05T12:36:59.303Z,100646.41
2022-10-05T12:42:09.284Z,100643.50
2022-10-05T12:47:21.123Z,100640.22
2022-10-05T12:52:45.512Z,100634.25
2022-10-05T12:58:00.398Z,100629.69
2022-10-05T13:03:13.635Z,100638.84
2022-10-05T13:08:25.561Z,100622.16
2022-10-05T13:13:44.304Z,100627.91
2022-10-05T13:19:05.767Z,100617.63
2022-10-05T13:24:18.575Z,100614.09
2022-10-05T13:29:30.249Z,100612.59
2022-10-05T13:34:40.491Z,100615.25
2022-10-05T13:39:57.751Z,100614.59
2022-10-05T13:45:11.483Z,100605.88
2022-10-05T13:50:20.192Z,100608.16
2022-10-05T13:55:35.694Z,100602.88
2022-10-05T14:00:46.936Z,100613.78
2022-10-05T14:05:57.705Z,100594.31
2022-10-05T14:11:02.887Z,100599.06
2022-10-05T14:16:22.307Z,100606.84
2022-10-05T14:21:28.397Z,100593.78
2022-10-05T14:26:37.574Z,100588.69
2022-10-05T14:31:50.874Z,100588.34
2022-10-05T14:36:59.890Z,100581.22
2022-10-05T14:42:15.623Z,100571.53
2022-10-05T14:47:23.937Z,100578.50
2022-10-05T14:52:32.839Z,100583.66
2022-10-05T14:57:44.917Z,100580.69
2022-10-05T15:03:00.884Z,100586.56
2022-10-05T15:08:15.789Z,100587.13
2022-10-05T15:13:20.898Z,100576.31
2022-10-05T15:18:38.003Z,100579.66
2022-10-05T15:23:47.453Z,100561.44
2022-10-05T15:28:57.508Z,100564.03
2022-10-05T15:34:08.110Z,100553.19
2022-10-05T15:39:24.098Z,100558.06
2022-10-05T15:44:38.846Z,100550.06
2022-10-05T15:49:52.504Z,100555.91
2022-10-05T15:55:23.253Z,100549.59
2022-10-05T16:00:30.191Z,100548.03
2022-10-05T16:06:02.399Z,100551.25
2022-10-05T16:11:14.625Z,100558.94
2022-10-05T16:16:32.226Z,100563.31
2022-10-05T16:21:45.971Z,100560.66
2022-10-05T16:26:59.956Z,100552.38
2022-10-05T16:32:13.168Z,100550.06
2022-10-05T16:37:28.290Z,100557.88
2022-10-05T16:42:47.253Z,100559.19
2022-10-05T16:47:56.619Z,100562.53
2022-10-05T16:53:06.710Z,100554.97
2022-10-05T16:58:22.530Z,100563.47
2022-10-05T17:03:34.265Z,100570.78
2022-10-05T17:08:49.771Z,100570.75
2022-10-05T17:14:08.167Z,100581.69
2022-10-05T17:19:27.743Z,100578.97
2022-10-05T17:24:47.937Z,100586.16
2022-10-05T17:29:53.735Z,100588.13
2022-10-05T17:35:18.935Z,100584.19
2022-10-05T17:40:38.594Z,100580.38
2022-10-05T17:46:07.284Z,100592.19
2022-10-05T17:51:36.310Z,100581.88
2022-10-05T17:57:23.731Z,100585.97
2022-10-05T18:02:43.729Z,100594.25
2022-10-05T18:07:48.642Z,100591.00
2022-10-05T18:12:52.591Z,100587.28
2022-10-05T18:17:59.656Z,100600.75
2022-10-05T18:23:35.472Z,100606.66
2022-10-05T18:28:53.624Z,100610.91
2022-10-05T18:34:26.211Z,100614.13
2022-10-05T18:39:48.616Z,100625.06
2022-10-05T18:44:56.691Z,100628.59
2022-10-05T18:50:14.167Z,100631.22
2022-10-05T18:55:22.615Z,100635.53
2022-10-05T19:00:26.866Z,100648.50
2022-10-05T19:05:49.031Z,100648.78
2022-10-05T19:10:56.311Z,100648.88
2022-10-05T19:16:11.494Z,100656.50
2022-10-05T19:21:26.248Z,100639.78
2022-10-05T19:26:37.596Z,100644.09
2022-10-05T19:31:44.891Z,100654.41
2022-10-05T19:36:59.280Z,100659.84
2022-10-05T19:42:16.093Z,100669.81
2022-10-05T19:47:31.288Z,100670.19
2022-10-05T19:52:47.670Z,100669.06
2022-10-05T19:57:54.088Z,100665.06
2022-10-05T20:03:11.908Z,100669.22
2022-10-05T20:08:18.890Z,100676.91
2022-10-05T20:13:23.246Z,100679.03
2022-10-05T20:18:57.599Z,100683.63
2022-10-05T20:24:14.002Z,100686.56
2022-10-05T20:29:16.562Z,100682.06
2022-10-05T20:34:19.162Z,100687.78
2022-10-05T20:39:23.088Z,100694.22
2022-10-05T20:44:25.784Z,100703.66
2022-10-05T20:49:28.634Z,100698.56
2022-10-05T20:54:32.962Z,100703.97
2022-10-05T20:59:36.436Z,100710.47
2022-10-05T21:04:41.432Z,100709.31
2022-10-05T21:09:46.657Z,100718.91
2022-10-05T21:14:49.282Z,100719.94
2022-10-05T21:19:52.578Z,100727.78
2022-10-05T21:24:56.602Z,100736.06
2022-10-05T21:29:59.222Z,100742.94
2022-10-05T21:35:01.856Z,100736.22
2022-10-05T21:40:06.669Z,100741.53
2022-10-05T21:45:10.705Z,100744.13
2022-10-05T21:50:13.418Z,100752.94
2022-10-05T21:55:18.151Z,100746.66
2022-10-05T22:00:20.812Z,100754.69
2022-10-05T22:05:23.537Z,100759.47
2022-10-05T22:10:28.940Z,100774.00
2022-10-05T22:15:32.683Z,100774.22
2022-10-05T22:20:35.665Z,100780.72
2022-10-05T22:25:40.142Z,100785.97
2022-10-05T22:30:44.409Z,100796.34
2022-10-05T22:35:46.926Z,100792.28
2022-10-05T22:40:50.919Z,100795.31
2022-10-05T22:45:53.850Z,100804.59
2022-10-05T22:50:56.459Z,100806.97
2022-10-05T22:56:05.335Z,100807.28
2022-10-05T23:01:10.363Z,100821.47
2022-10-05T23:06:14.551Z,100810.38
2022-10-05T23:11:21.275Z,100815.84
2022-10-05T23:16:25.454Z,100830.56
2022-10-05T23:21:29.621Z,100839.38
2022-10-05T23:26:33.838Z,100852.34
2022-10-05T23:31:36.967Z,100849.31
2022-10-05T23:36:39.570Z,100851.13
2022-10-05T23:41:44.460Z,100854.22
2022-10-05T23:46:47.195Z,100869.66
2022-10-05T23:51:49.838Z,100859.97
2022-10-05T23:56:53.824Z,100874.00
